createdAt,value
2023-02-04T00:00:38.840Z,100.00
2023-02-04T00:03:09.094Z,100.00
2023-02-04T00:05:39.127Z,100.00
2023-02-04T00:08:10.704Z,100.00
2023-02-04T00:10:40.781Z,100.00
2023-02-04T00:13:10.780Z,100.00
2023-02-04T00:15:40.877Z,100.00
2023-02-04T00:18:11.392Z,100.00
2023-02-04T00:20:41.435Z,100.00
2023-02-04T00:23:11.511Z,100.00
2023-02-04T00:25:41.782Z,100.00
2023-02-04T00:28:11.924Z,100.00
2023-02-04T00:30:41.950Z,100.00
2023-02-04T00:33:11.957Z,100.00
2023-02-04T00:35:41.969Z,100.00
2023-02-04T00:38:12.020Z,100.00
2023-02-04T00:40:42.150Z,100.00
2023-02-04T00:43:12.165Z,100.00
2023-02-04T00:45:42.238Z,100.00
2023-02-04T00:48:12.331Z,100.00
2023-02-04T00:50:42.317Z,100.00
2023-02-04T00:53:12.324Z,100.00
2023-02-04T00:55:42.330Z,100.00
2023-02-04T00:58:12.610Z,100.00
2023-02-04T01:00:42.659Z,100.00
2023-02-04T01:03:12.830Z,100.00
2023-02-04T01:05:42.941Z,100.00
2023-02-04T01:08:13.015Z,100.00
2023-02-04T01:10:43.109Z,100.00
2023-02-04T01:13:13.553Z,100.00
2023-02-04T01:15:43.597Z,100.00
2023-02-04T01:18:13.699Z,100.00
2023-02-04T01:20:43.725Z,100.00
2023-02-04T01:23:12.271Z,100.00
2023-02-04T01:25:40.612Z,100.00
2023-02-04T01:28:09.202Z,100.00
2023-02-04T01:30:37.591Z,100.00
2023-02-04T01:33:05.888Z,100.00
2023-02-04T01:35:34.324Z,100.00
2023-02-04T01:38:02.785Z,100.00
2023-02-04T01:40:32.590Z,100.00
2023-02-04T01:43:03.279Z,100.00
2023-02-04T01:45:34.503Z,100.00
2023-02-04T01:48:07.940Z,100.00
2023-02-04T01:50:38.659Z,100.00
2023-02-04T01:53:09.748Z,100.00
2023-02-04T01:55:39.841Z,100.00
2023-02-04T01:58:13.109Z,100.00
2023-02-04T02:00:43.365Z,100.00
2023-02-04T02:03:13.553Z,100.00
2023-02-04T02:05:55.705Z,100.00
2023-02-04T02:08:25.734Z,100.00
2023-02-04T02:10:55.800Z,100.00
2023-02-04T02:13:25.901Z,100.00
2023-02-04T02:15:55.983Z,100.00
2023-02-04T02:18:26.071Z,100.00
2023-02-04T02:21:05.840Z,100.00
2023-02-04T02:23:57.415Z,100.00
2023-02-04T02:26:25.957Z,100.00
2023-02-04T02:28:55.448Z,100.00
2023-02-04T02:31:24.127Z,100.00
2023-02-04T02:33:54.239Z,100.00
2023-02-04T02:36:23.739Z,100.00
2023-02-04T02:38:50.900Z,100.00
2023-02-04T02:41:19.387Z,100.00
2023-02-04T02:43:47.741Z,100.00
2023-02-04T02:46:16.344Z,100.00
2023-02-04T02:48:45.033Z,100.00
2023-02-04T02:51:13.060Z,100.00
2023-02-04T02:53:41.415Z,100.00
2023-02-04T02:56:10.713Z,100.00
2023-02-04T02:58:38.384Z,100.00
2023-02-04T03:01:10.718Z,100.00
2023-02-04T03:03:52.199Z,100.00
2023-02-04T03:06:27.154Z,100.00
2023-02-04T03:08:57.942Z,100.00
2023-02-04T03:11:30.032Z,100.00
2023-02-04T03:14:01.829Z,100.00
2023-02-04T03:16:37.997Z,100.00
2023-02-04T03:19:09.074Z,100.00
2023-02-04T03:21:41.158Z,100.00
2023-02-04T03:24:12.596Z,100.00
2023-02-04T03:26:42.788Z,100.00
2023-02-04T03:29:11.322Z,100.00
2023-02-04T03:31:39.622Z,100.00
2023-02-04T03:34:10.016Z,100.00
2023-02-04T03:36:38.223Z,100.00
2023-02-04T03:39:06.557Z,100.00
2023-02-04T03:41:35.032Z,100.00
2023-02-04T03:44:03.739Z,100.00
2023-02-04T03:46:32.021Z,100.00
2023-02-04T03:49:00.497Z,100.00
2023-02-04T03:51:28.871Z,100.00
2023-02-04T03:53:58.895Z,100.00
2023-02-04T03:56:27.446Z,100.00
2023-02-04T03:58:55.838Z,100.00
2023-02-04T04:01:24.388Z,100.00
2023-02-04T04:03:52.776Z,100.00
2023-02-04T04:06:21.223Z,100.00
2023-02-04T04:08:49.838Z,100.00
2023-02-04T04:11:18.188Z,100.00
2023-02-04T04:13:46.615Z,100.00
2023-02-04T04:16:15.071Z,100.00
2023-02-04T04:18:43.487Z,100.00
2023-02-04T04:21:13.560Z,100.00
2023-02-04T04:23:41.975Z,100.00
2023-02-04T04:26:10.494Z,100.00
2023-02-04T04:28:38.911Z,100.00
2023-02-04T04:31:07.453Z,100.00
2023-02-04T04:33:35.725Z,100.00
2023-02-04T04:36:04.909Z,100.00
2023-02-04T04:38:32.637Z,100.00
2023-02-04T04:41:01.136Z,100.00
2023-02-04T04:43:29.481Z,100.00
2023-02-04T04:45:57.963Z,100.00
2023-02-04T04:48:26.630Z,100.00
2023-02-04T04:50:54.889Z,100.00
2023-02-04T04:53:23.686Z,100.00
2023-02-04T04:55:53.727Z,100.00
2023-02-04T04:58:22.188Z,100.00
2023-02-04T05:00:50.653Z,100.00
2023-02-04T05:03:19.011Z,100.00
2023-02-04T05:05:47.429Z,100.00
2023-02-04T05:08:17.074Z,100.00
2023-02-04T05:10:45.408Z,100.00
2023-02-04T05:13:13.651Z,100.00
2023-02-04T05:15:42.485Z,100.00
2023-02-04T05:18:10.170Z,100.00
2023-02-04T05:20:38.574Z,100.00
2023-02-04T05:23:07.027Z,100.00
2023-02-04T05:25:35.392Z,100.00
2023-02-04T05:28:04.299Z,100.00
2023-02-04T05:30:32.520Z,100.00
2023-02-04T05:33:00.654Z,100.00
2023-02-04T05:35:29.102Z,100.00
2023-02-04T05:37:57.578Z,100.00
2023-02-04T05:40:26.037Z,100.00
2023-02-04T05:42:54.514Z,100.00
2023-02-04T05:45:23.059Z,100.00
2023-02-04T05:47:51.417Z,100.00
2023-02-04T05:50:19.876Z,100.00
2023-02-04T05:52:48.215Z,100.00
2023-02-04T05:55:16.753Z,100.00
2023-02-04T05:57:45.053Z,100.00
2023-02-04T06:00:14.510Z,100.00
2023-02-04T06:02:42.570Z,100.00
2023-02-04T06:05:11.092Z,100.00
2023-02-04T06:07:39.353Z,100.00
2023-02-04T06:10:08.140Z,100.00
2023-02-04T06:12:36.231Z,100.00
2023-02-04T06:15:05.479Z,100.00
2023-02-04T06:17:33.133Z,100.00
2023-02-04T06:20:02.082Z,100.00
2023-02-04T06:22:29.874Z,100.00
2023-02-04T06:24:58.900Z,100.00
2023-02-04T06:27:26.820Z,100.00
2023-02-04T06:29:57.373Z,100.00
2023-02-04T06:32:24.935Z,100.00
2023-02-04T06:34:53.266Z,100.00
2023-02-04T06:37:24.055Z,100.00
2023-02-04T06:39:54.822Z,100.00
2023-02-04T06:42:25.869Z,100.00
2023-02-04T06:44:55.693Z,100.00
2023-02-04T06:47:25.493Z,100.00
2023-02-04T06:49:55.227Z,100.00
2023-02-04T06:52:25.063Z,100.00
2023-02-04T06:54:54.946Z,100.00
2023-02-04T06:57:24.785Z,100.00
2023-02-04T06:59:54.693Z,100.00
2023-02-04T07:02:24.747Z,100.00
2023-02-04T07:04:54.566Z,100.00
2023-02-04T07:07:24.336Z,100.00
2023-02-04T07:09:54.069Z,100.00
2023-02-04T07:12:24.174Z,100.00
2023-02-04T07:14:54.073Z,100.00
2023-02-04T07:17:24.155Z,100.00
2023-02-04T07:19:54.178Z,100.00
2023-02-04T07:22:24.000Z,100.00
2023-02-04T07:24:53.848Z,100.00
2023-02-04T07:27:23.618Z,100.00
2023-02-04T07:29:53.416Z,100.00
2023-02-04T07:32:23.323Z,100.00
2023-02-04T07:34:53.100Z,100.00
2023-02-04T07:37:23.721Z,100.00
2023-02-04T07:39:53.738Z,100.00
2023-02-04T07:42:23.777Z,100.00
2023-02-04T07:44:53.561Z,100.00
2023-02-04T07:47:23.469Z,100.00
2023-02-04T07:49:57.015Z,100.00
2023-02-04T07:52:27.170Z,100.00
2023-02-04T07:54:56.899Z,100.00
2023-02-04T07:57:26.617Z,100.00
2023-02-04T07:59:56.548Z,100.00
2023-02-04T08:02:26.881Z,100.00
2023-02-04T08:04:56.918Z,100.00
2023-02-04T08:07:26.624Z,100.00
2023-02-04T08:09:56.448Z,100.00
2023-02-04T08:12:26.267Z,100.00
2023-02-04T08:14:56.251Z,100.00
2023-02-04T08:17:26.179Z,100.00
2023-02-04T08:19:56.901Z,100.00
2023-02-04T08:22:26.861Z,100.00
2023-02-04T08:24:56.656Z,100.00
2023-02-04T08:27:25.159Z,100.00
2023-02-04T08:29:55.271Z,100.00
2023-02-04T08:32:26.817Z,100.00
2023-02-04T08:34:59.984Z,100.00
2023-02-04T08:37:33.162Z,100.00
2023-02-04T08:40:03.632Z,100.00
2023-02-04T08:42:34.869Z,100.00
2023-02-04T08:45:05.387Z,100.00
2023-02-04T08:47:35.226Z,100.00
2023-02-04T08:50:05.607Z,100.00
2023-02-04T08:52:36.743Z,100.00
2023-02-04T08:55:06.912Z,100.00
2023-02-04T08:57:36.693Z,100.00
2023-02-04T09:00:08.248Z,100.00
2023-02-04T09:02:37.589Z,100.00
2023-02-04T09:05:07.993Z,100.00
2023-02-04T09:07:37.829Z,100.00
2023-02-04T09:10:08.670Z,100.00
2023-02-04T09:12:38.378Z,100.00
2023-02-04T09:15:11.626Z,100.00
2023-02-04T09:17:42.389Z,100.00
2023-02-04T09:20:12.817Z,100.00
2023-02-04T09:22:42.704Z,100.00
2023-02-04T09:25:12.721Z,100.00
2023-02-04T09:27:42.732Z,100.00
2023-02-04T09:30:13.794Z,100.00
2023-02-04T09:32:43.194Z,100.00
2023-02-04T09:35:13.217Z,100.00
2023-02-04T09:37:43.243Z,100.00
2023-02-04T09:40:20.774Z,100.00
2023-02-04T09:42:53.693Z,100.00
2023-02-04T09:45:29.208Z,100.00
2023-02-04T09:48:05.415Z,100.00
2023-02-04T09:50:35.003Z,100.00
2023-02-04T09:53:10.809Z,100.00
2023-02-04T09:55:45.017Z,100.00
2023-02-04T09:58:21.673Z,100.00
2023-02-04T10:01:11.185Z,100.00
2023-02-04T10:03:50.293Z,100.00
2023-02-04T10:06:24.103Z,100.00
2023-02-04T10:08:54.485Z,100.00
2023-02-04T10:11:29.895Z,100.00
2023-02-04T10:14:00.346Z,100.00
2023-02-04T10:16:38.009Z,100.00
2023-02-04T10:19:16.103Z,100.00
2023-02-04T10:21:47.213Z,100.00
2023-02-04T10:24:26.588Z,100.00
2023-02-04T10:27:16.181Z,100.00
2023-02-04T10:29:59.814Z,100.00
2023-02-04T10:32:34.338Z,100.00
2023-02-04T10:35:04.755Z,100.00
2023-02-04T10:37:34.312Z,100.00
2023-02-04T10:40:04.651Z,100.00
2023-02-04T10:42:34.178Z,100.00
2023-02-04T10:45:04.973Z,100.00
2023-02-04T10:47:36.033Z,100.00
2023-02-04T10:50:21.089Z,100.00
2023-02-04T10:53:17.948Z,100.00
2023-02-04T10:55:51.350Z,100.00
2023-02-04T10:58:29.535Z,100.00
2023-02-04T11:00:59.612Z,100.00
2023-02-04T11:03:31.335Z,100.00
2023-02-04T11:06:02.270Z,100.00
2023-02-04T11:08:38.404Z,100.00
2023-02-04T11:11:16.966Z,100.00
2023-02-04T11:14:18.945Z,100.00
2023-02-04T11:16:49.771Z,100.00
2023-02-04T11:19:38.924Z,100.00
2023-02-04T11:22:46.568Z,100.00
2023-02-04T11:25:39.733Z,100.00
2023-02-04T11:28:26.550Z,100.00
2023-02-04T11:31:33.184Z,100.00
2023-02-04T11:34:23.096Z,100.00
2023-02-04T11:37:01.917Z,100.00
2023-02-04T11:39:43.741Z,100.00
2023-02-04T11:42:42.670Z,100.00
2023-02-04T11:45:29.016Z,100.00
2023-02-04T11:48:21.532Z,100.00
2023-02-04T11:51:11.407Z,100.00
2023-02-04T11:53:41.757Z,100.00
2023-02-04T11:56:23.647Z,100.00
2023-02-04T11:58:51.495Z,100.00
2023-02-04T12:01:32.260Z,100.00
2023-02-04T12:04:08.685Z,100.00
2023-02-04T12:06:38.729Z,100.00
2023-02-04T12:09:26.839Z,100.00
2023-02-04T12:12:04.643Z,100.00
2023-02-04T12:14:38.681Z,100.00
2023-02-04T12:17:20.818Z,100.00
2023-02-04T12:19:50.836Z,100.00
2023-02-04T12:22:19.641Z,100.00
2023-02-04T12:24:47.784Z,99.53
2023-02-04T12:27:16.063Z,98.14
2023-02-04T12:29:44.530Z,99.30
2023-02-04T12:32:12.963Z,98.91
2023-02-04T12:34:41.390Z,100.00
2023-02-04T12:37:09.877Z,100.00
2023-02-04T12:39:38.257Z,97.96
2023-02-04T12:42:10.332Z,95.34
2023-02-04T12:44:37.989Z,96.10
2023-02-04T12:47:06.408Z,93.66
2023-02-04T12:49:34.872Z,96.25
2023-02-04T12:52:03.556Z,95.30
2023-02-04T12:54:31.679Z,92.14
2023-02-04T12:57:00.158Z,91.02
2023-02-04T12:59:28.858Z,91.04
2023-02-04T13:01:57.358Z,90.03
2023-02-04T13:04:25.354Z,86.75
2023-02-04T13:06:53.722Z,81.20
2023-02-04T13:09:22.169Z,80.96
2023-02-04T13:11:50.534Z,81.44
2023-02-04T13:14:18.923Z,81.45
2023-02-04T13:16:47.352Z,80.72
2023-02-04T13:19:15.761Z,82.64
2023-02-04T13:21:44.206Z,82.34
2023-02-04T13:24:12.632Z,82.98
2023-02-04T13:26:41.061Z,83.39
2023-02-04T13:29:09.435Z,85.08
2023-02-04T13:31:37.883Z,79.50
2023-02-04T13:34:06.266Z,80.38
2023-02-04T13:36:34.984Z,78.25
2023-02-04T13:39:03.300Z,79.00
2023-02-04T13:41:32.026Z,78.03
2023-02-04T13:43:59.945Z,81.05
2023-02-04T13:46:28.731Z,79.94
2023-02-04T13:48:56.798Z,80.79
2023-02-04T13:51:25.760Z,80.71
2023-02-04T13:53:53.598Z,80.70
2023-02-04T13:56:22.226Z,82.11
2023-02-04T13:58:50.577Z,83.03
2023-02-04T14:01:21.025Z,84.84
2023-02-04T14:03:51.313Z,83.53
2023-02-04T14:06:21.811Z,85.78
2023-02-04T14:08:51.817Z,85.37
2023-02-04T14:11:21.801Z,85.10
2023-02-04T14:13:51.770Z,82.10
2023-02-04T14:16:22.502Z,83.02
2023-02-04T14:18:52.575Z,84.07
2023-02-04T14:21:23.306Z,83.42
2023-02-04T14:23:53.322Z,84.33
2023-02-04T14:26:23.495Z,87.63
2023-02-04T14:28:53.569Z,85.01
2023-02-04T14:31:23.623Z,85.47
2023-02-04T14:33:53.884Z,79.98
2023-02-04T14:36:23.860Z,78.22
2023-02-04T14:38:53.945Z,78.91
2023-02-04T14:41:26.342Z,80.89
2023-02-04T14:43:56.333Z,81.37
2023-02-04T14:46:26.421Z,81.78
2023-02-04T14:48:56.568Z,81.72
2023-02-04T14:51:26.573Z,80.83
2023-02-04T14:53:56.588Z,80.57
2023-02-04T14:56:27.251Z,79.49
2023-02-04T14:58:57.306Z,80.12
2023-02-04T15:01:27.689Z,81.13
2023-02-04T15:03:58.428Z,82.63
2023-02-04T15:06:28.476Z,81.51
2023-02-04T15:08:58.498Z,83.66
2023-02-04T15:11:28.522Z,84.65
2023-02-04T15:13:58.589Z,84.33
2023-02-04T15:16:28.667Z,85.68
2023-02-04T15:18:58.916Z,86.03
2023-02-04T15:21:29.499Z,86.92
2023-02-04T15:23:59.531Z,86.72
2023-02-04T15:26:29.347Z,88.57
2023-02-04T15:28:59.349Z,88.21
2023-02-04T15:31:29.687Z,89.32
2023-02-04T15:34:01.882Z,90.43
2023-02-04T15:36:31.861Z,88.69
2023-02-04T15:39:01.872Z,90.98
2023-02-04T15:41:31.922Z,89.63
2023-02-04T15:44:01.924Z,87.43
2023-02-04T15:46:34.332Z,86.05
2023-02-04T15:49:04.881Z,85.26
2023-02-04T15:51:35.108Z,86.13
2023-02-04T15:54:05.168Z,87.14
2023-02-04T15:56:35.170Z,88.90
2023-02-04T15:59:05.526Z,90.93
2023-02-04T16:01:35.655Z,89.34
2023-02-04T16:04:05.766Z,86.53
2023-02-04T16:06:36.215Z,86.65
2023-02-04T16:09:06.259Z,84.90
2023-02-04T16:11:37.804Z,86.46
2023-02-04T16:14:07.958Z,86.22
2023-02-04T16:16:37.967Z,85.12
2023-02-04T16:19:08.011Z,86.48
2023-02-04T16:21:38.019Z,87.11
2023-02-04T16:24:08.473Z,88.77
2023-02-04T16:26:38.660Z,88.43
2023-02-04T16:29:08.673Z,89.96
2023-02-04T16:31:38.756Z,89.54
2023-02-04T16:34:08.991Z,90.36
2023-02-04T16:36:38.992Z,90.27
2023-02-04T16:39:09.008Z,90.58
2023-02-04T16:41:39.063Z,91.77
2023-02-04T16:44:09.072Z,92.81
2023-02-04T16:46:39.137Z,95.02
2023-02-04T16:49:09.253Z,95.45
2023-02-04T16:51:39.224Z,93.49
2023-02-04T16:54:10.101Z,94.43
2023-02-04T16:56:40.098Z,94.51
2023-02-04T16:59:10.188Z,95.04
2023-02-04T17:01:40.366Z,95.98
2023-02-04T17:04:10.454Z,94.43
2023-02-04T17:06:38.803Z,95.13
2023-02-04T17:09:07.283Z,94.84
2023-02-04T17:11:37.056Z,95.00
2023-02-04T17:14:15.616Z,96.04
2023-02-04T17:16:48.079Z,97.26
2023-02-04T17:19:19.017Z,98.04
2023-02-04T17:21:49.103Z,99.01
2023-02-04T17:24:17.245Z,98.89
2023-02-04T17:26:45.582Z,99.84
2023-02-04T17:29:17.959Z,99.82
2023-02-04T17:31:48.415Z,100.00
2023-02-04T17:34:17.405Z,100.00
2023-02-04T17:36:47.437Z,100.00
2023-02-04T17:39:17.314Z,100.00
2023-02-04T17:41:47.021Z,100.00
2023-02-04T17:44:24.389Z,100.00
2023-02-04T17:46:54.845Z,100.00
2023-02-04T17:49:23.192Z,100.00
2023-02-04T17:51:52.825Z,100.00
2023-02-04T17:54:22.915Z,100.00
2023-02-04T17:56:57.540Z,100.00
2023-02-04T17:59:27.601Z,100.00
2023-02-04T18:01:58.067Z,100.00
2023-02-04T18:04:28.526Z,100.00
2023-02-04T18:06:58.529Z,100.00
2023-02-04T18:09:28.532Z,100.00
2023-02-04T18:11:58.649Z,100.00
2023-02-04T18:14:28.818Z,100.00
2023-02-04T18:17:00.764Z,100.00
2023-02-04T18:19:37.228Z,100.00
2023-02-04T18:22:18.009Z,100.00
2023-02-04T18:24:48.988Z,100.00
2023-02-04T18:27:31.178Z,100.00
2023-02-04T18:30:01.566Z,100.00
2023-02-04T18:32:40.754Z,100.00
2023-02-04T18:35:31.739Z,100.00
2023-02-04T18:38:01.775Z,100.00
2023-02-04T18:40:32.105Z,100.00
2023-02-04T18:43:29.572Z,100.00
2023-02-04T18:46:24.860Z,100.00
2023-02-04T18:49:27.544Z,100.00
2023-02-04T18:51:59.623Z,100.00
2023-02-04T18:54:40.353Z,100.00
2023-02-04T18:57:13.579Z,100.00
2023-02-04T18:59:44.416Z,100.00
2023-02-04T19:02:39.795Z,100.00
2023-02-04T19:05:44.396Z,100.00
2023-02-04T19:08:27.150Z,100.00
2023-02-04T19:10:59.859Z,100.00
2023-02-04T19:13:42.318Z,100.00
2023-02-04T19:16:36.541Z,100.00
2023-02-04T19:19:43.854Z,100.00
2023-02-04T19:22:39.438Z,100.00
2023-02-04T19:25:46.772Z,100.00
2023-02-04T19:28:39.152Z,100.00
2023-02-04T19:31:08.654Z,100.00
2023-02-04T19:33:42.768Z,100.00
2023-02-04T19:36:37.150Z,100.00
2023-02-04T19:39:27.511Z,100.00
2023-02-04T19:41:58.238Z,100.00
2023-02-04T19:44:45.016Z,100.00
2023-02-04T19:47:40.792Z,100.00
2023-02-04T19:50:21.382Z,100.00
2023-02-04T19:53:11.276Z,100.00
2023-02-04T19:55:52.267Z,100.00
2023-02-04T19:58:40.089Z,100.00
2023-02-04T20:01:19.768Z,100.00
2023-02-04T20:03:50.733Z,100.00
2023-02-04T20:06:36.065Z,100.00
2023-02-04T20:09:25.218Z,100.00
2023-02-04T20:12:07.375Z,100.00
2023-02-04T20:14:50.699Z,100.00
2023-02-04T20:17:45.874Z,100.00
2023-02-04T20:20:31.076Z,100.00
2023-02-04T20:23:33.214Z,100.00
2023-02-04T20:26:03.246Z,100.00
2023-02-04T20:28:51.795Z,100.00
2023-02-04T20:31:31.945Z,100.00
2023-02-04T20:34:02.051Z,100.00
2023-02-04T20:36:42.258Z,100.00
2023-02-04T20:39:37.911Z,100.00
2023-02-04T20:42:47.705Z,100.00
2023-02-04T20:45:46.969Z,100.00
2023-02-04T20:48:16.917Z,100.00
2023-02-04T20:50:52.036Z,100.00
2023-02-04T20:53:52.733Z,100.00
2023-02-04T20:56:27.849Z,100.00
2023-02-04T20:59:12.311Z,100.00
2023-02-04T21:01:53.613Z,100.00
2023-02-04T21:04:38.484Z,100.00
2023-02-04T21:07:21.252Z,100.00
2023-02-04T21:09:51.808Z,100.00
2023-02-04T21:12:22.115Z,100.00
2023-02-04T21:14:50.393Z,100.00
2023-02-04T21:17:18.884Z,100.00
2023-02-04T21:19:47.395Z,100.00
2023-02-04T21:22:15.794Z,100.00
2023-02-04T21:24:44.761Z,100.00
2023-02-04T21:27:12.779Z,100.00
2023-02-04T21:29:41.409Z,100.00
2023-02-04T21:32:09.686Z,100.00
2023-02-04T21:34:38.064Z,100.00
2023-02-04T21:37:06.515Z,100.00
2023-02-04T21:39:34.908Z,100.00
2023-02-04T21:42:14.828Z,100.00
2023-02-04T21:44:43.603Z,100.00
2023-02-04T21:47:12.302Z,100.00
2023-02-04T21:49:43.103Z,100.00
2023-02-04T21:52:10.763Z,100.00
2023-02-04T21:54:39.182Z,100.00
2023-02-04T21:57:08.858Z,100.00
2023-02-04T21:59:38.806Z,100.00
2023-02-04T22:02:10.224Z,100.00
2023-02-04T22:04:38.773Z,100.00
2023-02-04T22:07:08.563Z,100.00
2023-02-04T22:09:38.562Z,100.00
2023-02-04T22:12:12.062Z,100.00
2023-02-04T22:14:58.605Z,100.00
2023-02-04T22:17:28.684Z,100.00
2023-02-04T22:19:59.337Z,100.00
2023-02-04T22:22:29.954Z,100.00
2023-02-04T22:25:00.257Z,100.00
2023-02-04T22:27:30.309Z,100.00
2023-02-04T22:30:03.130Z,100.00
2023-02-04T22:32:32.304Z,100.00
2023-02-04T22:35:02.524Z,100.00
2023-02-04T22:37:32.785Z,100.00
2023-02-04T22:40:03.431Z,100.00
2023-02-04T22:42:33.508Z,100.00
2023-02-04T22:45:05.115Z,100.00
2023-02-04T22:47:35.153Z,100.00
2023-02-04T22:50:06.027Z,100.00
2023-02-04T22:52:36.475Z,100.00
2023-02-04T22:55:06.988Z,100.00
2023-02-04T22:57:37.032Z,100.00
2023-02-04T23:00:10.214Z,100.00
2023-02-04T23:02:40.258Z,100.00
2023-02-04T23:05:10.306Z,100.00
2023-02-04T23:07:40.361Z,100.00
2023-02-04T23:10:10.742Z,100.00
2023-02-04T23:12:40.808Z,100.00
2023-02-04T23:15:12.830Z,100.00
2023-02-04T23:17:42.890Z,100.00
2023-02-04T23:20:13.410Z,100.00
2023-02-04T23:22:43.414Z,100.00
2023-02-04T23:25:13.597Z,100.00
2023-02-04T23:27:43.699Z,100.00
2023-02-04T23:30:15.622Z,100.00
2023-02-04T23:32:45.721Z,100.00
2023-02-04T23:35:15.745Z,100.00
2023-02-04T23:37:45.972Z,100.00
2023-02-04T23:40:16.200Z,100.00
2023-02-04T23:42:46.285Z,100.00
2023-02-04T23:45:16.440Z,100.00
2023-02-04T23:47:46.414Z,100.00
2023-02-04T23:50:17.259Z,100.00
2023-02-04T23:52:47.314Z,100.00
2023-02-04T23:55:18.596Z,100.00
2023-02-04T23:57:49.717Z,100.00
